Polar Bear — ZMA2072 — position and weather

sailwx.info

Track history (hours):
 
Tides and Currents Weather Stations Pressure Air Temp Water Temp Dewpoint Dewpoint Depression Visibility Wind Speed Wind Dir Waves Ship Positions

Polar Bear

Last reported at 2015-Aug-01 23:33 UTC. Time now 2015-Aug-02 00:14 UTC.
Position N 49°28' W 123°51'.

Length 28 m; draft 2.3 m.

Type: Pleasure craft. MMSI: 512172000.

Date/timePositionNaut miles runAvg speedWind from/ knotsBaromVisibWave heightAir tempDewpointWater temp
2015-Aug-01 23:33N 49°28' W 123°51'8 8.1
2015-Aug-01 22:33N 49°29' W 124°03'3 3.1
2015-Aug-01 21:33N 49°31' W 124°07'1010.3
2015-Aug-01 20:33N 49°40' W 124°13'3 3.2
2015-Aug-01 19:29N 49°44' W 124°12'0 0.0
2015-Aug-01 18:20N 49°44' W 124°12'0 0.0
2015-Aug-01 17:26N 49°44' W 124°12'0 0.0
2015-Aug-01 16:29N 49°44' W 124°12'0 0.0
2015-Aug-01 15:29N 49°44' W 124°12'0 0.0
2015-Aug-01 14:29N 49°44' W 124°12'0 0.0
2015-Aug-01 13:32N 49°44' W 124°12'0 0.0
2015-Aug-01 12:32N 49°44' W 124°12'0 0.0
2015-Aug-01 11:32N 49°44' W 124°12'0 0.0
2015-Aug-01 10:11N 49°44' W 124°12'0 0.0
2015-Aug-01 09:32N 49°44' W 124°12'0 0.0
2015-Aug-01 08:32N 49°44' W 124°12'0 0.0
2015-Aug-01 07:26N 49°44' W 124°12'0 0.0
2015-Aug-01 06:29N 49°44' W 124°12'0 0.0
2015-Aug-01 05:32N 49°44' W 124°12'0 0.0
2015-Aug-01 04:33N 49°44' W 124°12'7 7.1
2015-Aug-01 03:33N 49°37' W 124°08'10 9.7
2015-Aug-01 02:33N 49°30' W 123°58'1010.3
2015-Aug-01 01:33N 49°25' W 123°44'1010.1
2015-Aug-01 00:33N 49°21' W 123°30'10 9.8
2015-Jul-31 23:33N 49°19' W 123°15'4 4.3
2015-Jul-31 22:34N 49°17' W 123°09'1 1.1
2015-Jul-31 21:33N 49°16' W 123°08'0 0.0
2015-Jul-31 20:33N 49°16' W 123°08'0 0.0
2015-Jul-31 19:33N 49°16' W 123°08'0 0.0
2015-Jul-31 18:33N 49°16' W 123°08'0 0.0
2015-Jul-31 17:33N 49°16' W 123°08'0 0.0
2015-Jul-31 16:33N 49°16' W 123°08'0 0.0
2015-Jul-31 15:33N 49°16' W 123°08'0 0.0
2015-Jul-31 14:33N 49°16' W 123°08'0 0.0
2015-Jul-31 13:33N 49°16' W 123°08'0 0.0
2015-Jul-31 12:33N 49°16' W 123°08'0 0.0
2015-Jul-31 11:33N 49°16' W 123°08'0 0.0
2015-Jul-31 10:33N 49°16' W 123°08'0 0.0
2015-Jul-31 09:33N 49°16' W 123°08'0 0.0
2015-Jul-31 08:33N 49°16' W 123°08'0 0.0
2015-Jul-31 07:33N 49°16' W 123°08'0 0.0
2015-Jul-31 06:33N 49°16' W 123°08'0 0.0
2015-Jul-31 05:33N 49°16' W 123°08'0 0.0
2015-Jul-31 04:33N 49°16' W 123°08'0 0.0
2015-Jul-31 03:33N 49°16' W 123°08'0 0.0
2015-Jul-31 02:33N 49°16' W 123°08'0 0.0
2015-Jul-31 01:33N 49°16' W 123°08'0 0.0
2015-Jul-31 00:33N 49°16' W 123°08'0 0.0
2015-Jul-30 23:33N 49°16' W 123°08'0 0.0
2015-Jul-30 22:33N 49°16' W 123°08'0 0.0
2015-Jul-30 21:33N 49°16' W 123°08'0 0.0
2015-Jul-30 20:33N 49°16' W 123°08'0 0.0
2015-Jul-30 19:33N 49°16' W 123°08'2 2.2
2015-Jul-30 18:33N 49°17' W 123°11'10 9.6
2015-Jul-30 17:33N 49°16' W 123°26'1010.2
2015-Jul-30 16:33N 49°14' W 123°41'9 9.4
2015-Jul-30 15:33N 49°10' W 123°55'1 0.9
2015-Jul-30 14:33N 49°10' W 123°56'0 0.0
2015-Jul-30 13:33N 49°10' W 123°56'0 0.0
2015-Jul-30 12:33N 49°10' W 123°56'0 0.0
2015-Jul-30 11:33N 49°10' W 123°56'0 0.0
2015-Jul-30 10:33N 49°10' W 123°56'0 0.0
2015-Jul-30 09:27N 49°10' W 123°56'0 0.0
2015-Jul-30 08:33N 49°10' W 123°56'0 0.0
2015-Jul-30 07:30N 49°10' W 123°56'0 0.0
2015-Jul-30 06:30N 49°10' W 123°56'0 0.0
2015-Jul-30 05:33N 49°10' W 123°56'0 0.0
2015-Jul-30 04:30N 49°10' W 123°56'0 0.0
2015-Jul-30 03:30N 49°10' W 123°56'0 0.0
2015-Jul-30 02:33N 49°10' W 123°56'0 0.0
2015-Jul-30 01:30N 49°10' W 123°56'0 0.0
2015-Jul-30 00:30N 49°10' W 123°56'0 0.0
2015-Jul-29 23:30N 49°10' W 123°56'0 0.0
2015-Jul-29 22:30N 49°10' W 123°56'0 0.0
2015-Jul-29 21:30N 49°10' W 123°56'0 0.0
2015-Jul-29 20:30N 49°10' W 123°56'0 0.0
2015-Jul-29 19:24N 49°10' W 123°56'0 0.0
2015-Jul-29 18:27N 49°10' W 123°56'0 0.0
2015-Jul-29 17:18N 49°10' W 123°56'0 0.0
2015-Jul-29 16:30N 49°10' W 123°56'0 0.0
2015-Jul-29 15:27N 49°10' W 123°56'0 0.0
2015-Jul-29 14:21N 49°10' W 123°56'0 0.0
2015-Jul-29 13:30N 49°10' W 123°56'0 0.0
2015-Jul-29 10:30N 49°10' W 123°56'0 0.0
2015-Jul-29 09:30N 49°10' W 123°56'0 0.0
2015-Jul-29 08:33N 49°10' W 123°56'0 0.0
2015-Jul-29 07:24N 49°10' W 123°56'0 0.0
2015-Jul-29 05:12N 49°10' W 123°56'0 0.0
2015-Jul-29 04:30N 49°10' W 123°56'0 0.0
2015-Jul-29 03:30N 49°10' W 123°56'0 0.0
2015-Jul-29 01:24N 49°10' W 123°56'0 0.0
2015-Jul-29 00:12N 49°10' W 123°56'0 0.0
2015-Jul-28 23:27N 49°10' W 123°56'0 0.0
2015-Jul-28 22:27N 49°10' W 123°56'0 0.0
2015-Jul-28 21:27N 49°10' W 123°56'0 0.0
2015-Jul-28 20:21N 49°10' W 123°56'0 0.0
2015-Jul-28 19:21N 49°10' W 123°56'0 0.0
2015-Jul-28 14:30N 49°10' W 123°56'0 0.0
2015-Jul-28 13:33N 49°10' W 123°56'0 0.0
2015-Jul-28 12:06N 49°10' W 123°56'0 0.0
2015-Jul-28 11:24N 49°10' W 123°56'0 0.0
2015-Jul-28 10:30N 49°10' W 123°56'0 0.0
2015-Jul-28 09:30N 49°10' W 123°56'0 0.0
2015-Jul-28 08:27N 49°10' W 123°56'0 0.0
2015-Jul-28 07:23N 49°10' W 123°56'0 0.0
2015-Jul-28 06:29N 49°10' W 123°56'0 0.0
2015-Jul-28 05:30N 49°10' W 123°56'0 0.0
2015-Jul-28 04:29N 49°10' W 123°56'0 0.0
2015-Jul-28 03:29N 49°10' W 123°56'0 0.0
2015-Jul-28 02:29N 49°10' W 123°56'0 0.0
2015-Jul-28 01:29N 49°10' W 123°56'0 0.0
2015-Jul-28 00:29N 49°10' W 123°56'0 0.0
2015-Jul-27 23:29N 49°10' W 123°56'0 0.0
2015-Jul-27 21:11N 49°10' W 123°56'0 0.0
2015-Jul-27 20:26N 49°10' W 123°56'0 0.0
2015-Jul-27 19:32N 49°10' W 123°56'0 0.0
2015-Jul-27 15:17N 49°10' W 123°56'0 0.0
2015-Jul-27 14:29N 49°10' W 123°56'0 0.0
2015-Jul-27 13:29N 49°10' W 123°56'0 0.0
2015-Jul-27 12:29N 49°10' W 123°56'0 0.0
2015-Jul-27 11:29N 49°10' W 123°56'0 0.0
2015-Jul-27 10:29N 49°10' W 123°56'0 0.0
2015-Jul-27 09:29N 49°10' W 123°56'0 0.0
2015-Jul-27 08:29N 49°10' W 123°56'0 0.0
2015-Jul-27 07:32N 49°10' W 123°56'0 0.0
2015-Jul-27 06:32N 49°10' W 123°56'0 0.0
2015-Jul-27 05:29N 49°10' W 123°56'0 0.0
2015-Jul-27 04:29N 49°10' W 123°56'0 0.0
2015-Jul-27 03:29N 49°10' W 123°56'0 0.0
2015-Jul-27 02:32N 49°10' W 123°56'0 0.0
2015-Jul-27 00:29N 49°10' W 123°56'0 0.0
2015-Jul-26 22:23N 49°10' W 123°56'0 0.0
2015-Jul-26 21:32N 49°10' W 123°56'0 0.0
2015-Jul-26 20:32N 49°10' W 123°56'0 0.0
2015-Jul-26 19:29N 49°10' W 123°56'0 0.0
2015-Jul-26 18:29N 49°10' W 123°56'0 0.0
2015-Jul-26 17:29N 49°10' W 123°56'0 0.0
2015-Jul-26 16:29N 49°10' W 123°56'0 0.0
2015-Jul-26 15:29N 49°10' W 123°56'0 0.0
2015-Jul-26 14:29N 49°10' W 123°56'0 0.0
2015-Jul-26 13:32N 49°10' W 123°56'0 0.0
2015-Jul-26 12:29N 49°10' W 123°56'0 0.0
2015-Jul-26 11:29N 49°10' W 123°56'0 0.0
2015-Jul-26 02:26N 49°10' W 123°56'0 0.0
2015-Jul-26 01:32N 49°10' W 123°56'0 0.0
2015-Jul-25 19:29N 49°10' W 123°56'0 0.0
2015-Jul-25 17:29N 49°10' W 123°56'1 1.3
2015-Jul-25 16:33N 49°11' W 123°55'10 9.7
2015-Jul-25 15:33N 49°17' W 124°05'10 9.6
2015-Jul-25 14:33N 49°22' W 124°18'10 9.7
2015-Jul-25 13:33N 49°26' W 124°32'10 9.6
2015-Jul-25 12:31N 49°30' W 124°46'7 0.6
2015-Jul-25 00:33N 49°36' W 124°50'3 3.3
2015-Jul-24 23:34N 49°38' W 124°54'2 1.8
2015-Jul-24 22:33N 49°40' W 124°56'5 3.7
2015-Jul-24 21:10N 49°36' W 124°50'0 0.1
2015-Jul-24 20:31N 49°36' W 124°50'0 0.0
2015-Jul-24 19:31N 49°36' W 124°50'0 0.0
2015-Jul-24 18:19N 49°36' W 124°50'0 0.0
2015-Jul-24 17:31N 49°36' W 124°50'0 0.0
2015-Jul-24 16:25N 49°36' W 124°50'0 0.0
2015-Jul-24 15:28N 49°36' W 124°50'0 0.0
2015-Jul-24 14:31N 49°36' W 124°50'0 0.0
2015-Jul-24 13:31N 49°36' W 124°50'0 0.0
2015-Jul-24 12:25N 49°36' W 124°50'0 0.0
2015-Jul-24 06:31N 49°36' W 124°50'0 0.0
2015-Jul-24 05:07N 49°36' W 124°50'0 0.0
2015-Jul-24 04:13N 49°36' W 124°50'0 0.0
2015-Jul-24 03:23N 49°36' W 124°50'4 4.3
2015-Jul-24 02:33N 49°39' W 124°52'8 8.3
2015-Jul-24 01:33N 49°48' W 124°53'9 9.5
2015-Jul-24 00:33N 49°56' W 125°00'2 1.2
2015-Jul-23 23:05N 49°58' W 125°01'0 0.1
2015-Jul-23 22:26N 49°58' W 125°01'4 3.8
2015-Jul-23 21:31N 49°59' W 125°06'6 5.5
2015-Jul-23 20:23N 50°00' W 124°57'  
Track history (hours):
 
Tides and Currents Weather Stations Pressure Air Temp Water Temp Dewpoint Dewpoint Depression Visibility Wind Speed Wind Dir Waves Ship Positions

Polar Bear

Last reported at 2015-Aug-01 23:33 UTC. Time now 2015-Aug-02 00:14 UTC.
Position N 49°28' W 123°51'.

Length 28 m; draft 2.3 m.

Type: Pleasure craft. MMSI: 512172000.

Date/timePositionNaut miles runAvg speedWind from/ knotsBaromVisibWave heightAir tempDewpointWater temp
2015-Aug-01 23:33N 49°28' W 123°51'8 8.1
2015-Aug-01 22:33N 49°29' W 124°03'3 3.1
2015-Aug-01 21:33N 49°31' W 124°07'1010.3
2015-Aug-01 20:33N 49°40' W 124°13'3 3.2
2015-Aug-01 19:29N 49°44' W 124°12'0 0.0
2015-Aug-01 18:20N 49°44' W 124°12'0 0.0
2015-Aug-01 17:26N 49°44' W 124°12'0 0.0
2015-Aug-01 16:29N 49°44' W 124°12'0 0.0
2015-Aug-01 15:29N 49°44' W 124°12'0 0.0
2015-Aug-01 14:29N 49°44' W 124°12'0 0.0
2015-Aug-01 13:32N 49°44' W 124°12'0 0.0
2015-Aug-01 12:32N 49°44' W 124°12'0 0.0
2015-Aug-01 11:32N 49°44' W 124°12'0 0.0
2015-Aug-01 10:11N 49°44' W 124°12'0 0.0
2015-Aug-01 09:32N 49°44' W 124°12'0 0.0
2015-Aug-01 08:32N 49°44' W 124°12'0 0.0
2015-Aug-01 07:26N 49°44' W 124°12'0 0.0
2015-Aug-01 06:29N 49°44' W 124°12'0 0.0
2015-Aug-01 05:32N 49°44' W 124°12'0 0.0
2015-Aug-01 04:33N 49°44' W 124°12'7 7.1
2015-Aug-01 03:33N 49°37' W 124°08'10 9.7
2015-Aug-01 02:33N 49°30' W 123°58'1010.3
2015-Aug-01 01:33N 49°25' W 123°44'1010.1
2015-Aug-01 00:33N 49°21' W 123°30'10 9.8
2015-Jul-31 23:33N 49°19' W 123°15'4 4.3
2015-Jul-31 22:34N 49°17' W 123°09'1 1.1
2015-Jul-31 21:33N 49°16' W 123°08'0 0.0
2015-Jul-31 20:33N 49°16' W 123°08'0 0.0
2015-Jul-31 19:33N 49°16' W 123°08'0 0.0
2015-Jul-31 18:33N 49°16' W 123°08'0 0.0
2015-Jul-31 17:33N 49°16' W 123°08'0 0.0
2015-Jul-31 16:33N 49°16' W 123°08'0 0.0
2015-Jul-31 15:33N 49°16' W 123°08'0 0.0
2015-Jul-31 14:33N 49°16' W 123°08'0 0.0
2015-Jul-31 13:33N 49°16' W 123°08'0 0.0
2015-Jul-31 12:33N 49°16' W 123°08'0 0.0
2015-Jul-31 11:33N 49°16' W 123°08'0 0.0
2015-Jul-31 10:33N 49°16' W 123°08'0 0.0
2015-Jul-31 09:33N 49°16' W 123°08'0 0.0
2015-Jul-31 08:33N 49°16' W 123°08'0 0.0
2015-Jul-31 07:33N 49°16' W 123°08'0 0.0
2015-Jul-31 06:33N 49°16' W 123°08'0 0.0
2015-Jul-31 05:33N 49°16' W 123°08'0 0.0
2015-Jul-31 04:33N 49°16' W 123°08'0 0.0
2015-Jul-31 03:33N 49°16' W 123°08'0 0.0
2015-Jul-31 02:33N 49°16' W 123°08'0 0.0
2015-Jul-31 01:33N 49°16' W 123°08'0 0.0
2015-Jul-31 00:33N 49°16' W 123°08'0 0.0
2015-Jul-30 23:33N 49°16' W 123°08'0 0.0
2015-Jul-30 22:33N 49°16' W 123°08'0 0.0
2015-Jul-30 21:33N 49°16' W 123°08'0 0.0
2015-Jul-30 20:33N 49°16' W 123°08'0 0.0
2015-Jul-30 19:33N 49°16' W 123°08'2 2.2
2015-Jul-30 18:33N 49°17' W 123°11'10 9.6
2015-Jul-30 17:33N 49°16' W 123°26'1010.2
2015-Jul-30 16:33N 49°14' W 123°41'9 9.4
2015-Jul-30 15:33N 49°10' W 123°55'1 0.9
2015-Jul-30 14:33N 49°10' W 123°56'0 0.0
2015-Jul-30 13:33N 49°10' W 123°56'0 0.0
2015-Jul-30 12:33N 49°10' W 123°56'0 0.0
2015-Jul-30 11:33N 49°10' W 123°56'0 0.0
2015-Jul-30 10:33N 49°10' W 123°56'0 0.0
2015-Jul-30 09:27N 49°10' W 123°56'0 0.0
2015-Jul-30 08:33N 49°10' W 123°56'0 0.0
2015-Jul-30 07:30N 49°10' W 123°56'0 0.0
2015-Jul-30 06:30N 49°10' W 123°56'0 0.0
2015-Jul-30 05:33N 49°10' W 123°56'0 0.0
2015-Jul-30 04:30N 49°10' W 123°56'0 0.0
2015-Jul-30 03:30N 49°10' W 123°56'0 0.0
2015-Jul-30 02:33N 49°10' W 123°56'0 0.0
2015-Jul-30 01:30N 49°10' W 123°56'0 0.0
2015-Jul-30 00:30N 49°10' W 123°56'0 0.0
2015-Jul-29 23:30N 49°10' W 123°56'0 0.0
2015-Jul-29 22:30N 49°10' W 123°56'0 0.0
2015-Jul-29 21:30N 49°10' W 123°56'0 0.0
2015-Jul-29 20:30N 49°10' W 123°56'0 0.0
2015-Jul-29 19:24N 49°10' W 123°56'0 0.0
2015-Jul-29 18:27N 49°10' W 123°56'0 0.0
2015-Jul-29 17:18N 49°10' W 123°56'0 0.0
2015-Jul-29 16:30N 49°10' W 123°56'0 0.0
2015-Jul-29 15:27N 49°10' W 123°56'0 0.0
2015-Jul-29 14:21N 49°10' W 123°56'0 0.0
2015-Jul-29 13:30N 49°10' W 123°56'0 0.0
2015-Jul-29 10:30N 49°10' W 123°56'0 0.0
2015-Jul-29 09:30N 49°10' W 123°56'0 0.0
2015-Jul-29 08:33N 49°10' W 123°56'0 0.0
2015-Jul-29 07:24N 49°10' W 123°56'0 0.0
2015-Jul-29 05:12N 49°10' W 123°56'0 0.0
2015-Jul-29 04:30N 49°10' W 123°56'0 0.0
2015-Jul-29 03:30N 49°10' W 123°56'0 0.0
2015-Jul-29 01:24N 49°10' W 123°56'0 0.0
2015-Jul-29 00:12N 49°10' W 123°56'0 0.0
2015-Jul-28 23:27N 49°10' W 123°56'0 0.0
2015-Jul-28 22:27N 49°10' W 123°56'0 0.0
2015-Jul-28 21:27N 49°10' W 123°56'0 0.0
2015-Jul-28 20:21N 49°10' W 123°56'0 0.0
2015-Jul-28 19:21N 49°10' W 123°56'0 0.0
2015-Jul-28 14:30N 49°10' W 123°56'0 0.0
2015-Jul-28 13:33N 49°10' W 123°56'0 0.0
2015-Jul-28 12:06N 49°10' W 123°56'0 0.0
2015-Jul-28 11:24N 49°10' W 123°56'0 0.0
2015-Jul-28 10:30N 49°10' W 123°56'0 0.0
2015-Jul-28 09:30N 49°10' W 123°56'0 0.0
2015-Jul-28 08:27N 49°10' W 123°56'0 0.0
2015-Jul-28 07:23N 49°10' W 123°56'0 0.0
2015-Jul-28 06:29N 49°10' W 123°56'0 0.0
2015-Jul-28 05:30N 49°10' W 123°56'0 0.0
2015-Jul-28 04:29N 49°10' W 123°56'0 0.0
2015-Jul-28 03:29N 49°10' W 123°56'0 0.0
2015-Jul-28 02:29N 49°10' W 123°56'0 0.0
2015-Jul-28 01:29N 49°10' W 123°56'0 0.0
2015-Jul-28 00:29N 49°10' W 123°56'0 0.0
2015-Jul-27 23:29N 49°10' W 123°56'0 0.0
2015-Jul-27 21:11N 49°10' W 123°56'0 0.0
2015-Jul-27 20:26N 49°10' W 123°56'0 0.0
2015-Jul-27 19:32N 49°10' W 123°56'0 0.0
2015-Jul-27 15:17N 49°10' W 123°56'0 0.0
2015-Jul-27 14:29N 49°10' W 123°56'0 0.0
2015-Jul-27 13:29N 49°10' W 123°56'0 0.0
2015-Jul-27 12:29N 49°10' W 123°56'0 0.0
2015-Jul-27 11:29N 49°10' W 123°56'0 0.0
2015-Jul-27 10:29N 49°10' W 123°56'0 0.0
2015-Jul-27 09:29N 49°10' W 123°56'0 0.0
2015-Jul-27 08:29N 49°10' W 123°56'0 0.0
2015-Jul-27 07:32N 49°10' W 123°56'0 0.0
2015-Jul-27 06:32N 49°10' W 123°56'0 0.0
2015-Jul-27 05:29N 49°10' W 123°56'0 0.0
2015-Jul-27 04:29N 49°10' W 123°56'0 0.0
2015-Jul-27 03:29N 49°10' W 123°56'0 0.0
2015-Jul-27 02:32N 49°10' W 123°56'0 0.0
2015-Jul-27 00:29N 49°10' W 123°56'0 0.0
2015-Jul-26 22:23N 49°10' W 123°56'0 0.0
2015-Jul-26 21:32N 49°10' W 123°56'0 0.0
2015-Jul-26 20:32N 49°10' W 123°56'0 0.0
2015-Jul-26 19:29N 49°10' W 123°56'0 0.0
2015-Jul-26 18:29N 49°10' W 123°56'0 0.0
2015-Jul-26 17:29N 49°10' W 123°56'0 0.0
2015-Jul-26 16:29N 49°10' W 123°56'0 0.0
2015-Jul-26 15:29N 49°10' W 123°56'0 0.0
2015-Jul-26 14:29N 49°10' W 123°56'0 0.0
2015-Jul-26 13:32N 49°10' W 123°56'0 0.0
2015-Jul-26 12:29N 49°10' W 123°56'0 0.0
2015-Jul-26 11:29N 49°10' W 123°56'0 0.0
2015-Jul-26 02:26N 49°10' W 123°56'0 0.0
2015-Jul-26 01:32N 49°10' W 123°56'0 0.0
2015-Jul-25 19:29N 49°10' W 123°56'0 0.0
2015-Jul-25 17:29N 49°10' W 123°56'1 1.3
2015-Jul-25 16:33N 49°11' W 123°55'10 9.7
2015-Jul-25 15:33N 49°17' W 124°05'10 9.6
2015-Jul-25 14:33N 49°22' W 124°18'10 9.7
2015-Jul-25 13:33N 49°26' W 124°32'10 9.6
2015-Jul-25 12:31N 49°30' W 124°46'7 0.6
2015-Jul-25 00:33N 49°36' W 124°50'3 3.3
2015-Jul-24 23:34N 49°38' W 124°54'2 1.8
2015-Jul-24 22:33N 49°40' W 124°56'5 3.7
2015-Jul-24 21:10N 49°36' W 124°50'0 0.1
2015-Jul-24 20:31N 49°36' W 124°50'0 0.0
2015-Jul-24 19:31N 49°36' W 124°50'0 0.0
2015-Jul-24 18:19N 49°36' W 124°50'0 0.0
2015-Jul-24 17:31N 49°36' W 124°50'0 0.0
2015-Jul-24 16:25N 49°36' W 124°50'0 0.0
2015-Jul-24 15:28N 49°36' W 124°50'0 0.0
2015-Jul-24 14:31N 49°36' W 124°50'0 0.0
2015-Jul-24 13:31N 49°36' W 124°50'0 0.0
2015-Jul-24 12:25N 49°36' W 124°50'0 0.0
2015-Jul-24 06:31N 49°36' W 124°50'0 0.0
2015-Jul-24 05:07N 49°36' W 124°50'0 0.0
2015-Jul-24 04:13N 49°36' W 124°50'0 0.0
2015-Jul-24 03:23N 49°36' W 124°50'4 4.3
2015-Jul-24 02:33N 49°39' W 124°52'8 8.3
2015-Jul-24 01:33N 49°48' W 124°53'9 9.5
2015-Jul-24 00:33N 49°56' W 125°00'2 1.2
2015-Jul-23 23:05N 49°58' W 125°01'0 0.1
2015-Jul-23 22:26N 49°58' W 125°01'4 3.8
2015-Jul-23 21:31N 49°59' W 125°06'6 5.5
2015-Jul-23 20:23N 50°00' W 124°57'  

Dump ship's entire track history